Time;durP1;ratioP1;P1;durP2;ratioP2;P2;SDS_P1;SDS_P2;PMS_P1;PMS_P2;Temp;Humidity;BMP_temperature;BMP_pressure;BME280_temperature;BME280_humidity;BME280_pressure;Samples;Min_cycle;Max_cycle;Signal;HPM_P1;HPM_P2
2023/04/12 00:02:12;;;;;;;1.42;1.23;;;14.50;70.80;;;;;;5040268;28;20063;-85
2023/04/12 00:04:39;;;;;;;1.45;1.30;;;14.50;70.80;;;;;;5040340;28;20033;-86
2023/04/12 00:07:04;;;;;;;3.15;1.40;;;14.50;70.80;;;;;;5040063;28;20029;-86
2023/04/12 00:09:31;;;;;;;2.17;1.50;;;14.50;70.80;;;;;;5023662;28;20475;-87
2023/04/12 00:11:58;;;;;;;2.30;1.35;;;14.50;70.90;;;;;;5007321;28;20044;-87
2023/04/12 00:14:25;;;;;;;2.03;1.30;;;14.50;70.90;;;;;;5024079;28;20033;-88
2023/04/12 00:16:51;;;;;;;2.28;1.40;;;14.50;70.90;;;;;;5023593;28;20553;-87
2023/04/12 00:19:17;;;;;;;1.30;1.20;;;14.40;71.10;;;;;;5006998;28;20057;-87
2023/04/12 00:21:43;;;;;;;2.05;1.50;;;14.40;70.90;;;;;;5039311;28;20465;-87
2023/04/12 00:24:09;;;;;;;3.28;1.50;;;14.40;70.90;;;;;;5040005;28;20036;-88
2023/04/12 00:26:35;;;;;;;2.50;1.65;;;14.40;70.90;;;;;;5007386;28;20025;-87
2023/04/12 00:29:01;;;;;;;2.45;1.30;;;14.40;70.90;;;;;;5029328;28;20021;-86
2023/04/12 00:31:27;;;;;;;2.00;1.40;;;14.40;71.00;;;;;;5031736;28;20535;-87
2023/04/12 00:33:53;;;;;;;1.88;1.25;;;14.30;71.00;;;;;;5030177;28;20028;-87
2023/04/12 00:36:18;;;;;;;1.50;1.30;;;14.30;71.00;;;;;;5023551;28;20053;-87
2023/04/12 00:38:47;;;;;;;1.63;1.45;;;14.30;71.70;;;;;;5040791;28;20090;-89
2023/04/12 00:41:14;;;;;;;1.83;1.42;;;14.30;71.10;;;;;;5039508;28;20028;-87
2023/04/12 00:43:40;;;;;;;1.42;1.33;;;14.20;71.00;;;;;;5039199;28;20041;-87
2023/04/12 00:46:07;;;;;;;1.85;1.45;;;14.30;71.10;;;;;;5022745;28;20029;-87
2023/04/12 00:48:33;;;;;;;1.20;1.10;;;14.20;71.10;;;;;;5022985;28;20045;-87
2023/04/12 00:51:00;;;;;;;2.00;1.38;;;14.20;71.10;;;;;;5022599;28;20082;-86
2023/04/12 00:53:26;;;;;;;2.17;1.58;;;14.20;71.10;;;;;;5037805;28;20465;-86
2023/04/12 00:55:53;;;;;;;1.52;1.20;;;14.20;71.10;;;;;;5022585;28;20029;-86
2023/04/12 00:58:23;;;;;;;1.90;1.27;;;14.20;71.10;;;;;;5006780;28;20119;-86
2023/04/12 01:00:51;;;;;;;2.13;1.23;;;14.20;71.10;;;;;;5039056;28;20120;-86
2023/04/12 01:03:29;;;;;;;1.52;1.20;;;14.10;71.10;;;;;;5022389;28;20028;-86
2023/04/12 01:06:29;;;;;;;1.85;1.55;;;14.10;71.10;;;;;;5038874;28;20044;-85
2023/04/12 01:09:07;;;;;;;1.73;1.30;;;14.10;71.20;;;;;;5056919;28;20036;-86
2023/04/12 01:11:43;;;;;;;2.20;1.40;;;14.10;71.20;;;;;;5056376;28;20083;-88
2023/04/12 01:14:28;;;;;;;2.45;1.20;;;14.10;71.30;;;;;;5022924;28;20119;-86
2023/04/12 01:17:03;;;;;;;1.95;1.35;;;14.00;71.20;;;;;;5022977;28;20029;-87
2023/04/12 01:19:35;;;;;;;2.00;1.10;;;14.00;71.30;;;;;;5039433;28;20025;-87
2023/04/12 01:22:29;;;;;;;1.60;1.30;;;14.00;71.30;;;;;;5022463;28;20029;-87
2023/04/12 01:25:23;;;;;;;1.27;1.10;;;14.00;71.40;;;;;;5022989;28;20033;-87
2023/04/12 01:28:11;;;;;;;2.03;1.38;;;14.00;71.40;;;;;;5038703;28;20377;-86
2023/04/12 01:30:42;;;;;;;1.77;1.30;;;13.90;71.40;;;;;;5038291;28;20036;-88
2023/04/12 01:33:11;;;;;;;1.67;1.30;;;13.90;71.40;;;;;;5038621;28;20036;-87
2023/04/12 01:35:38;;;;;;;1.30;1.20;;;13.90;71.40;;;;;;5038092;28;20503;-88
2023/04/12 01:38:05;;;;;;;1.63;1.30;;;13.90;71.50;;;;;;5021863;28;20096;-86
2023/04/12 01:40:31;;;;;;;2.08;1.30;;;13.90;71.50;;;;;;5021938;28;20112;-87
2023/04/12 01:43:12;;;;;;;1.75;1.13;;;13.80;71.50;;;;;;5037638;28;20036;-86
2023/04/12 01:45:38;;;;;;;1.30;1.20;;;13.90;71.60;;;;;;5037939;28;20037;-87
2023/04/12 01:48:07;;;;;;;1.58;1.20;;;13.80;71.50;;;;;;5038158;28;20028;-85
2023/04/12 01:50:37;;;;;;;1.48;1.30;;;13.80;71.60;;;;;;5038772;28;20021;-85
2023/04/12 01:53:28;;;;;;;1.88;1.20;;;13.80;71.60;;;;;;5038692;28;20079;-86
2023/04/12 01:55:58;;;;;;;1.35;1.20;;;13.80;71.60;;;;;;5037277;28;20081;-86
2023/04/12 01:58:25;;;;;;;1.17;1.05;;;13.80;71.60;;;;;;5021715;28;20097;-87
2023/04/12 02:00:53;;;;;;;1.23;1.13;;;13.70;71.60;;;;;;5021370;28;20029;-87
2023/04/12 02:03:20;;;;;;;1.23;1.13;;;13.70;71.60;;;;;;5021244;28;20111;-86
2023/04/12 02:05:46;;;;;;;1.80;1.10;;;13.70;71.60;;;;;;5037919;28;20033;-87
2023/04/12 02:08:12;;;;;;;1.83;1.30;;;13.70;71.70;;;;;;5004971;28;20028;-86
2023/04/12 02:10:39;;;;;;;1.92;1.30;;;13.70;71.70;;;;;;5021467;28;20473;-86
2023/04/12 02:13:05;;;;;;;2.00;1.30;;;13.70;71.70;;;;;;5005470;28;20048;-86
2023/04/12 02:15:32;;;;;;;1.70;1.20;;;13.60;71.70;;;;;;5020871;28;20481;-86
2023/04/12 02:17:59;;;;;;;2.03;1.17;;;13.60;71.70;;;;;;5005005;28;20111;-86
2023/04/12 02:20:25;;;;;;;2.20;1.20;;;13.60;71.70;;;;;;5038134;28;20025;-86
2023/04/12 02:22:52;;;;;;;2.70;1.20;;;13.60;71.70;;;;;;5037287;28;20033;-87
2023/04/12 02:25:18;;;;;;;2.47;1.42;;;13.60;71.80;;;;;;5020932;28;20044;-87
2023/04/12 02:27:45;;;;;;;1.25;1.13;;;13.60;71.80;;;;;;5020626;28;20071;-87
2023/04/12 02:30:12;;;;;;;1.10;1.08;;;13.50;71.80;;;;;;5037400;28;20033;-86
2023/04/12 02:32:45;;;;;;;1.95;1.30;;;13.50;71.80;;;;;;5004788;28;20040;-89
2023/04/12 02:35:21;;;;;;;2.25;1.10;;;13.50;71.80;;;;;;5023442;28;20076;-87
2023/04/12 02:37:53;;;;;;;2.85;1.45;;;13.50;71.90;;;;;;5021747;28;20497;-86
2023/04/12 02:40:20;;;;;;;2.28;1.30;;;13.50;71.80;;;;;;5021645;28;20378;-86
2023/04/12 02:42:47;;;;;;;2.05;1.27;;;13.50;71.90;;;;;;5004532;28;20470;-86
2023/04/12 02:45:14;;;;;;;1.73;1.40;;;13.40;71.90;;;;;;5020897;28;20032;-87
2023/04/12 02:47:40;;;;;;;1.83;1.17;;;13.40;71.90;;;;;;5005315;28;20036;-88
2023/04/12 02:50:08;;;;;;;2.30;1.45;;;13.40;71.90;;;;;;5004858;28;20033;-86
2023/04/12 02:52:45;;;;;;;2.17;1.10;;;13.40;72.00;;;;;;5007596;28;20369;-87
2023/04/12 02:55:11;;;;;;;1.75;1.23;;;13.40;72.00;;;;;;5020735;28;20044;-87
2023/04/12 02:57:37;;;;;;;2.80;1.30;;;13.40;72.00;;;;;;5020122;28;20029;-86
2023/04/12 03:00:11;;;;;;;1.67;1.35;;;13.30;72.00;;;;;;5021347;28;20107;-85
2023/04/12 03:02:50;;;;;;;1.95;1.42;;;13.30;72.00;;;;;;5041240;28;20036;-86
2023/04/12 03:05:23;;;;;;;2.00;1.20;;;13.30;72.10;;;;;;5031767;28;20032;-87
2023/04/12 03:07:49;;;;;;;1.92;1.63;;;13.30;72.10;;;;;;5014659;28;20040;-87
2023/04/12 03:10:19;;;;;;;1.17;1.08;;;13.20;72.00;;;;;;5039071;28;20112;-87
2023/04/12 03:12:55;;;;;;;1.50;1.17;;;13.20;72.10;;;;;;5023907;28;20442;-86
2023/04/12 03:15:28;;;;;;;1.77;1.40;;;13.30;72.20;;;;;;5006939;28;20043;-86
2023/04/12 03:17:55;;;;;;;1.50;1.20;;;13.20;72.10;;;;;;5024161;28;20061;-86
2023/04/12 03:20:27;;;;;;;2.15;1.27;;;13.20;72.10;;;;;;5025756;28;20040;-87
2023/04/12 03:23:05;;;;;;;1.30;1.20;;;13.20;72.10;;;;;;4996952;28;20025;-86
2023/04/12 03:25:35;;;;;;;1.58;1.15;;;13.20;72.20;;;;;;5041205;28;20438;-86
2023/04/12 03:28:18;;;;;;;1.92;1.20;;;13.20;72.20;;;;;;5012699;28;20040;-86
2023/04/12 03:30:47;;;;;;;2.05;1.30;;;13.10;72.20;;;;;;5040986;28;20155;-86
2023/04/12 03:33:16;;;;;;;1.75;1.15;;;13.10;72.20;;;;;;5040485;28;20084;-86
2023/04/12 03:35:44;;;;;;;2.42;1.23;;;13.10;72.20;;;;;;5008396;28;20052;-86
2023/04/12 03:38:10;;;;;;;2.35;1.38;;;13.10;72.20;;;;;;5007851;28;20037;-85
2023/04/12 03:40:36;;;;;;;1.90;1.20;;;13.10;72.30;;;;;;5008127;28;20094;-85
2023/04/12 03:43:02;;;;;;;1.48;1.10;;;13.10;72.30;;;;;;5007986;28;20415;-86
2023/04/12 03:45:29;;;;;;;1.30;1.20;;;13.10;72.30;;;;;;5023822;28;20036;-84
2023/04/12 03:47:58;;;;;;;1.58;1.17;;;13.00;72.30;;;;;;5024205;28;20477;-86
2023/04/12 03:50:23;;;;;;;1.20;1.10;;;13.10;72.40;;;;;;5058193;28;20029;-86
2023/04/12 03:52:54;;;;;;;1.35;1.10;;;13.00;72.40;;;;;;5041083;28;20033;-86
2023/04/12 03:55:24;;;;;;;1.33;1.10;;;13.00;72.40;;;;;;5040220;28;20041;-86
2023/04/12 03:57:51;;;;;;;1.55;1.20;;;13.00;72.40;;;;;;5007455;28;20033;-86
2023/04/12 04:00:22;;;;;;;1.55;1.23;;;13.00;72.40;;;;;;5023918;28;20082;-86
2023/04/12 04:03:04;;;;;;;1.15;1.10;;;12.90;72.40;;;;;;5025769;28;20057;-85
2023/04/12 04:05:36;;;;;;;1.23;1.13;;;12.90;72.40;;;;;;5009017;28;20044;-84
2023/04/12 04:08:05;;;;;;;1.30;1.20;;;12.90;73.10;;;;;;5040406;28;20087;-85
2023/04/12 04:10:38;;;;;;;1.30;1.20;;;12.90;72.50;;;;;;5024625;28;20150;-85
2023/04/12 04:13:04;;;;;;;1.38;1.20;;;12.90;72.50;;;;;;5024245;28;20048;-88
2023/04/12 04:15:30;;;;;;;1.75;1.30;;;12.90;72.50;;;;;;5007816;28;20056;-86
2023/04/12 04:17:56;;;;;;;1.30;1.20;;;12.90;72.50;;;;;;5007971;28;20102;-86
2023/04/12 04:20:22;;;;;;;1.30;1.20;;;12.80;72.50;;;;;;5039676;28;20469;-87
2023/04/12 04:22:52;;;;;;;1.58;1.20;;;12.80;72.60;;;;;;5008061;28;20029;-85
2023/04/12 04:25:18;;;;;;;2.30;1.20;;;12.80;72.60;;;;;;5039430;28;20072;-86
2023/04/12 04:27:50;;;;;;;1.75;1.63;;;12.90;72.70;;;;;;5008438;28;20028;-87
2023/04/12 04:30:17;;;;;;;1.35;1.20;;;12.80;72.70;;;;;;5007467;28;20041;-86
2023/04/12 04:32:47;;;;;;;1.48;1.30;;;12.80;72.60;;;;;;5007590;28;20032;-86
2023/04/12 04:35:15;;;;;;;1.20;1.10;;;12.80;72.70;;;;;;5007078;28;20053;-87
2023/04/12 04:37:55;;;;;;;1.25;1.15;;;12.80;72.70;;;;;;5024880;28;20029;-87
2023/04/12 04:40:22;;;;;;;1.83;1.25;;;12.80;72.70;;;;;;5022828;28;20083;-86
2023/04/12 04:42:53;;;;;;;1.25;1.15;;;12.80;72.80;;;;;;5023375;28;20021;-90
2023/04/12 04:45:25;;;;;;;2.10;1.17;;;12.70;72.70;;;;;;5023457;28;20454;-86
2023/04/12 04:47:55;;;;;;;1.77;1.10;;;12.80;72.80;;;;;;5023193;28;20116;-85
2023/04/12 04:50:25;;;;;;;1.30;1.20;;;12.70;72.80;;;;;;5006389;28;20032;-87
2023/04/12 04:52:52;;;;;;;1.70;1.52;;;12.70;72.80;;;;;;5039850;28;20033;-88
2023/04/12 04:55:20;;;;;;;1.88;1.27;;;12.70;72.80;;;;;;5022769;28;20039;-88
2023/04/12 04:57:46;;;;;;;2.15;1.20;;;12.70;72.80;;;;;;5022443;28;20094;-88
2023/04/12 05:00:13;;;;;;;1.85;1.13;;;12.70;72.90;;;;;;5006168;28;20116;-87
2023/04/12 05:02:42;;;;;;;1.67;1.20;;;12.70;72.90;;;;;;5007145;28;20029;-88
2023/04/12 05:05:15;;;;;;;1.58;1.30;;;12.60;72.90;;;;;;5038431;28;20032;-88
2023/04/12 05:07:43;;;;;;;1.42;1.15;;;12.60;72.90;;;;;;5040132;28;20029;-86
2023/04/12 05:10:09;;;;;;;1.25;1.15;;;12.60;72.90;;;;;;5022490;28;20390;-87
2023/04/12 05:12:39;;;;;;;1.98;1.13;;;12.60;72.90;;;;;;5023286;28;20025;-88
2023/04/12 05:15:05;;;;;;;1.38;1.20;;;12.60;72.90;;;;;;5021975;28;20032;-86
2023/04/12 05:17:33;;;;;;;1.80;1.25;;;12.60;73.00;;;;;;5022185;28;20131;-85
2023/04/12 05:20:05;;;;;;;1.27;1.20;;;12.50;73.00;;;;;;5006496;28;20087;-86
2023/04/12 05:22:31;;;;;;;1.70;1.20;;;12.50;73.00;;;;;;5022055;28;20484;-87
2023/04/12 05:24:57;;;;;;;2.35;1.33;;;12.50;73.00;;;;;;5021718;28;20049;-87
2023/04/12 05:27:30;;;;;;;1.20;1.10;;;12.50;73.00;;;;;;5038893;28;20029;-89
2023/04/12 05:29:57;;;;;;;1.30;1.20;;;12.50;73.00;;;;;;5005897;28;20474;-87
2023/04/12 05:32:24;;;;;;;1.20;1.10;;;12.50;73.00;;;;;;5005711;28;20045;-86
2023/04/12 05:34:51;;;;;;;1.30;1.20;;;12.50;73.10;;;;;;5038791;28;20037;-88
2023/04/12 05:37:17;;;;;;;1.63;1.30;;;12.50;73.20;;;;;;5008136;28;20029;-87
2023/04/12 05:39:43;;;;;;;2.13;1.45;;;12.50;73.10;;;;;;5030416;28;20021;-87
2023/04/12 05:42:10;;;;;;;1.33;1.20;;;12.40;73.20;;;;;;5013474;28;20052;-87
2023/04/12 05:44:37;;;;;;;1.60;1.27;;;12.40;73.20;;;;;;5043063;28;20397;-88
2023/04/12 05:47:04;;;;;;;1.10;1.10;;;12.40;73.30;;;;;;5022601;28;20035;-88
2023/04/12 05:49:31;;;;;;;1.38;1.20;;;12.40;73.30;;;;;;5038219;28;20025;-89
2023/04/12 05:51:58;;;;;;;1.45;1.30;;;12.40;73.40;;;;;;5022701;28;20053;-87
2023/04/12 05:54:24;;;;;;;1.20;1.10;;;12.30;73.30;;;;;;5022047;28;20029;-86
2023/04/12 05:56:53;;;;;;;4.18;1.20;;;12.40;73.40;;;;;;5021349;28;20052;-87
2023/04/12 05:59:19;;;;;;;1.90;1.15;;;12.30;73.40;;;;;;5005537;28;20445;-87
2023/04/12 06:01:45;;;;;;;1.83;1.20;;;12.30;73.40;;;;;;5037500;28;20123;-87
2023/04/12 06:04:20;;;;;;;;;;;12.30;73.40;;;;;;5007968;28;20120;-87
2023/04/12 06:06:46;;;;;;;1.27;1.10;;;12.30;73.40;;;;;;5021368;28;19944;-87
2023/04/12 06:09:13;;;;;;;1.25;1.15;;;12.30;73.30;;;;;;5021765;28;20021;-85
2023/04/12 06:11:39;;;;;;;1.20;1.10;;;12.30;73.40;;;;;;5022237;28;20032;-88
2023/04/12 06:14:05;;;;;;;1.10;1.10;;;12.20;73.40;;;;;;5020998;28;20033;-87
2023/04/12 06:16:31;;;;;;;1.73;1.33;;;12.20;73.50;;;;;;5020974;28;20056;-86
2023/04/12 06:18:57;;;;;;;1.58;1.20;;;12.20;73.50;;;;;;5020714;28;20473;-89
2023/04/12 06:21:24;;;;;;;1.52;1.10;;;12.20;73.50;;;;;;5020981;28;20069;-88
2023/04/12 06:23:50;;;;;;;1.80;1.30;;;12.20;73.60;;;;;;5005039;28;20036;-87
2023/04/12 06:26:17;;;;;;;1.90;1.30;;;12.20;73.50;;;;;;5004767;28;20029;-87
2023/04/12 06:28:43;;;;;;;1.55;1.20;;;12.20;73.50;;;;;;5004715;28;20025;-88
2023/04/12 06:31:09;;;;;;;1.42;1.30;;;12.20;74.10;;;;;;5037336;28;20025;-86
2023/04/12 06:33:37;;;;;;;1.10;1.10;;;12.20;73.50;;;;;;5037560;28;20045;-87
2023/04/12 06:36:07;;;;;;;1.13;1.10;;;12.20;73.50;;;;;;5020910;28;20498;-89
2023/04/12 06:38:33;;;;;;;1.00;0.90;;;12.20;73.50;;;;;;5020506;28;20033;-88
2023/04/12 06:40:59;;;;;;;1.30;1.20;;;12.20;73.50;;;;;;5004455;28;20389;-88
2023/04/12 06:43:25;;;;;;;1.42;1.33;;;12.20;73.40;;;;;;5004805;28;20120;-88
2023/04/12 06:45:51;;;;;;;1.08;1.00;;;12.20;73.50;;;;;;5020617;28;20052;-87
2023/04/12 06:48:17;;;;;;;1.20;1.10;;;12.20;73.50;;;;;;5004374;28;20202;-88
2023/04/12 06:50:44;;;;;;;1.30;1.20;;;12.20;73.50;;;;;;5020653;28;20032;-87
2023/04/12 06:53:12;;;;;;;1.27;1.17;;;12.20;73.40;;;;;;5004705;28;20033;-87
2023/04/12 06:55:38;;;;;;;1.38;1.25;;;12.20;73.50;;;;;;5037045;28;20037;-88
2023/04/12 06:58:04;;;;;;;1.00;1.00;;;12.20;73.40;;;;;;5004918;28;20454;-88
2023/04/12 07:00:30;;;;;;;2.15;1.20;;;12.20;73.40;;;;;;5020583;28;20033;-87
2023/04/12 07:02:56;;;;;;;1.20;1.10;;;12.20;73.40;;;;;;5004349;28;20075;-88
2023/04/12 07:05:22;;;;;;;1.13;1.02;;;12.20;74.10;;;;;;5036752;28;20044;-89
2023/04/12 07:07:48;;;;;;;1.48;1.38;;;12.20;73.50;;;;;;5036919;28;20021;-88
2023/04/12 07:10:14;;;;;;;1.30;1.20;;;12.20;73.50;;;;;;5003935;28;20052;-86
2023/04/12 07:12:40;;;;;;;1.38;1.20;;;12.20;73.50;;;;;;5003952;28;20076;-88
2023/04/12 07:15:07;;;;;;;1.33;1.23;;;12.20;73.50;;;;;;5021086;28;20041;-89
2023/04/12 07:17:33;;;;;;;1.13;1.10;;;12.10;73.40;;;;;;5020356;28;20541;-87
2023/04/12 07:19:58;;;;;;;1.30;1.20;;;12.10;73.40;;;;;;5020305;28;20033;-88
2023/04/12 07:22:24;;;;;;;1.13;1.10;;;12.10;73.40;;;;;;5004409;28;20041;-87
2023/04/12 07:24:50;;;;;;;1.17;1.08;;;12.10;73.50;;;;;;5003948;28;20473;-90
2023/04/12 07:27:16;;;;;;;2.00;1.10;;;12.20;73.50;;;;;;5036942;28;20037;-89
2023/04/12 07:29:42;;;;;;;1.13;1.10;;;12.20;73.50;;;;;;5004850;28;20519;-90
2023/04/12 07:32:09;;;;;;;1.40;1.20;;;12.10;73.50;;;;;;5003735;28;20393;-89
2023/04/12 07:34:35;;;;;;;1.25;1.15;;;12.10;73.50;;;;;;5036611;28;20469;-86
2023/04/12 07:37:01;;;;;;;1.10;1.10;;;12.10;73.60;;;;;;5037174;28;20065;-89
2023/04/12 07:39:30;;;;;;;1.08;1.08;;;12.10;74.20;;;;;;5036851;28;20048;-89
2023/04/12 07:41:56;;;;;;;1.10;1.00;;;12.10;73.60;;;;;;5020787;28;20097;-88
2023/04/12 07:44:22;;;;;;;1.30;1.20;;;12.10;73.60;;;;;;5003829;28;20068;-88
2023/04/12 07:46:48;;;;;;;1.05;1.05;;;12.10;73.60;;;;;;5054105;28;20036;-86
2023/04/12 07:49:13;;;;;;;1.20;1.10;;;12.10;73.70;;;;;;5020800;28;20029;-87
2023/04/12 07:51:41;;;;;;;1.10;1.10;;;12.10;73.70;;;;;;5003472;28;20025;-88
2023/04/12 07:54:06;;;;;;;1.10;1.10;;;12.10;73.70;;;;;;5003896;28;20478;-89
2023/04/12 07:56:34;;;;;;;1.30;1.20;;;12.10;73.70;;;;;;5003447;28;20040;-89
2023/04/12 07:59:00;;;;;;;1.40;1.20;;;12.10;73.70;;;;;;5036329;28;20033;-90
2023/04/12 08:01:25;;;;;;;1.20;1.10;;;12.10;73.80;;;;;;5021156;28;20082;-91
2023/04/12 08:03:51;;;;;;;1.00;1.00;;;12.10;73.80;;;;;;5040615;28;20047;-90
2023/04/12 08:06:17;;;;;;;1.10;1.10;;;12.10;73.80;;;;;;5007383;28;20108;-90
2023/04/12 08:08:43;;;;;;;1.20;1.10;;;12.10;73.80;;;;;;5024210;28;20033;-91
2023/04/12 08:11:09;;;;;;;1.33;1.23;;;12.10;73.80;;;;;;5008986;28;20025;-91
2023/04/12 08:13:35;;;;;;;1.30;1.20;;;12.10;73.80;;;;;;5031492;28;20057;-90
2023/04/12 08:16:01;;;;;;;1.30;1.20;;;12.20;73.90;;;;;;5049754;28;20060;-90
2023/04/12 08:18:28;;;;;;;1.42;1.30;;;12.20;73.90;;;;;;5016330;28;20382;-91
2023/04/12 08:20:55;;;;;;;1.27;1.17;;;12.20;73.80;;;;;;5062327;28;20025;-89
2023/04/12 08:23:21;;;;;;;1.30;1.20;;;12.20;73.90;;;;;;5023944;28;20033;-89
2023/04/12 08:25:47;;;;;;;1.35;1.20;;;12.20;73.90;;;;;;5023780;28;20060;-90
2023/04/12 08:28:13;;;;;;;1.42;1.20;;;12.20;73.80;;;;;;5023855;28;20070;-90
2023/04/12 08:30:38;;;;;;;1.27;1.10;;;12.20;73.90;;;;;;5023711;28;20430;-88
2023/04/12 08:33:04;;;;;;;1.40;1.30;;;12.20;73.80;;;;;;5022948;28;20120;-88
2023/04/12 08:35:31;;;;;;;1.45;1.35;;;12.20;73.90;;;;;;5006547;28;20140;-86
2023/04/12 08:37:57;;;;;;;1.40;1.30;;;12.30;73.90;;;;;;5039599;28;20057;-87
2023/04/12 08:40:23;;;;;;;1.83;1.38;;;12.30;73.90;;;;;;5023269;28;20466;-88
2023/04/12 08:42:54;;;;;;;1.40;1.23;;;12.30;73.90;;;;;;5023285;28;20481;-89
2023/04/12 08:45:22;;;;;;;1.30;1.20;;;12.30;73.90;;;;;;5023498;28;20036;-90
2023/04/12 08:47:48;;;;;;;1.60;1.40;;;12.30;73.90;;;;;;5023055;28;20029;-88
2023/04/12 08:50:14;;;;;;;1.83;1.50;;;12.30;73.90;;;;;;5039757;28;20533;-86
2023/04/12 08:52:41;;;;;;;1.30;1.20;;;12.30;73.90;;;;;;5038911;28;20013;-87
2023/04/12 08:55:09;;;;;;;1.58;1.20;;;12.40;73.90;;;;;;5039097;28;20032;-86
2023/04/12 08:57:36;;;;;;;1.63;1.30;;;12.40;73.90;;;;;;5039062;28;20040;-87
2023/04/12 09:00:07;;;;;;;1.20;1.20;;;12.40;73.90;;;;;;5056670;28;20136;-87
2023/04/12 09:02:35;;;;;;;1.45;1.30;;;12.40;73.90;;;;;;5056797;28;20151;-86
2023/04/12 09:05:01;;;;;;;1.55;1.33;;;12.40;73.90;;;;;;5022142;28;20115;-87
2023/04/12 09:07:29;;;;;;;1.98;1.40;;;12.40;73.90;;;;;;5022915;28;20114;-86
2023/04/12 09:09:56;;;;;;;1.30;1.20;;;12.50;73.90;;;;;;5006859;28;20029;-87
2023/04/12 09:12:22;;;;;;;1.27;1.17;;;12.50;73.90;;;;;;5038298;28;20473;-87
2023/04/12 09:15:14;;;;;;;1.38;1.20;;;12.50;73.90;;;;;;5005412;28;20063;-86
2023/04/12 09:17:40;;;;;;;1.92;1.40;;;12.50;73.90;;;;;;5039302;28;20064;-86
2023/04/12 09:20:15;;;;;;;1.33;1.10;;;12.50;73.80;;;;;;5022139;28;20021;-87
2023/04/12 09:22:46;;;;;;;1.67;1.30;;;12.50;73.90;;;;;;5022121;28;20110;-88
2023/04/12 09:25:13;;;;;;;1.83;1.30;;;12.60;73.80;;;;;;5022221;28;20036;-87
2023/04/12 09:27:46;;;;;;;2.72;1.52;;;12.60;73.80;;;;;;5038678;28;20029;-88
2023/04/12 09:30:14;;;;;;;1.52;1.30;;;12.60;73.80;;;;;;5038005;28;20036;-87
2023/04/12 09:32:40;;;;;;;1.67;1.10;;;12.60;73.80;;;;;;5038631;28;20025;-87
2023/04/12 09:35:07;;;;;;;1.95;1.20;;;12.70;73.80;;;;;;5038048;28;20033;-87
2023/04/12 09:37:32;;;;;;;2.80;1.45;;;12.70;73.80;;;;;;5022437;28;20114;-87
2023/04/12 09:40:08;;;;;;;1.30;1.20;;;12.70;73.70;;;;;;5038295;28;20033;-87
2023/04/12 09:42:52;;;;;;;1.10;1.10;;;12.80;73.80;;;;;;5038775;28;20436;-87
2023/04/12 09:45:24;;;;;;;1.75;1.30;;;12.80;73.80;;;;;;5037867;28;20039;-87
2023/04/12 09:47:51;;;;;;;2.88;1.30;;;12.80;73.70;;;;;;5021451;28;20024;-87
2023/04/12 09:50:28;;;;;;;1.30;1.20;;;12.80;73.60;;;;;;5038390;28;20021;-87
2023/04/12 09:52:56;;;;;;;1.40;1.15;;;12.90;73.70;;;;;;5021514;28;20057;-86
2023/04/12 09:55:24;;;;;;;1.80;1.45;;;12.90;73.60;;;;;;5038098;28;20051;-87
2023/04/12 09:57:52;;;;;;;1.25;1.15;;;12.90;73.50;;;;;;5021214;28;20087;-86
2023/04/12 10:00:21;;;;;;;1.63;1.30;;;13.00;73.50;;;;;;5038095;28;20029;-88
2023/04/12 10:02:50;;;;;;;3.15;1.58;;;13.00;73.50;;;;;;5021380;28;20033;-86
2023/04/12 10:05:19;;;;;;;2.75;1.27;;;13.10;73.50;;;;;;5055268;28;20032;-87
2023/04/12 10:07:46;;;;;;;1.67;1.25;;;13.10;73.40;;;;;;5037949;28;20519;-86
2023/04/12 10:10:14;;;;;;;2.55;1.58;;;13.20;73.40;;;;;;5020864;28;20160;-86
2023/04/12 10:12:42;;;;;;;2.03;1.30;;;13.20;73.40;;;;;;5055238;28;20029;-86
2023/04/12 10:15:12;;;;;;;1.95;1.38;;;13.20;73.40;;;;;;5038203;28;20421;-88
2023/04/12 10:17:56;;;;;;;2.75;1.45;;;13.30;73.30;;;;;;5021635;28;20035;-88
2023/04/12 10:20:22;;;;;;;1.95;1.40;;;13.30;74.00;;;;;;5036834;28;20071;-87
2023/04/12 10:22:50;;;;;;;2.95;1.50;;;13.40;73.20;;;;;;5021580;28;20024;-87
2023/04/12 10:25:22;;;;;;;2.45;1.30;;;13.50;73.20;;;;;;5054460;28;20039;-89
2023/04/12 10:27:48;;;;;;;1.58;1.30;;;13.50;73.10;;;;;;5037424;28;20032;-86
2023/04/12 10:30:24;;;;;;;1.92;1.40;;;13.50;73.10;;;;;;5020739;28;20029;-87
2023/04/12 10:33:07;;;;;;;3.25;1.58;;;13.60;73.10;;;;;;5037372;28;20021;-86
2023/04/12 10:36:02;;;;;;;2.45;1.50;;;13.70;73.10;;;;;;5036786;28;20052;-86
2023/04/12 10:38:32;;;;;;;1.65;1.23;;;13.70;73.00;;;;;;5052479;28;20052;-87
2023/04/12 10:41:12;;;;;;;1.55;1.20;;;13.80;72.90;;;;;;5054511;28;20033;-88
2023/04/12 10:43:38;;;;;;;1.55;1.30;;;13.80;72.90;;;;;;5055161;28;20033;-88
2023/04/12 10:46:05;;;;;;;2.88;1.58;;;13.90;72.90;;;;;;5037413;28;20106;-88
2023/04/12 10:48:31;;;;;;;1.88;1.50;;;13.90;72.80;;;;;;5012874;28;20044;-88
2023/04/12 10:51:21;;;;;;;1.90;1.50;;;14.00;72.80;;;;;;5030402;28;20032;-89
2023/04/12 10:53:47;;;;;;;2.28;1.52;;;14.00;72.80;;;;;;5027871;28;20120;-93
2023/04/12 10:56:28;;;;;;;3.88;1.58;;;14.10;72.70;;;;;;5022301;28;20028;-87
2023/04/12 10:58:55;;;;;;;;;;;14.10;72.70;;;;;;5021002;28;20119;-87
2023/04/12 11:01:21;;;;;;;1.52;1.40;;;14.10;72.50;;;;;;5036559;28;19967;-87
2023/04/12 11:04:15;;;;;;;4.55;1.85;;;14.20;72.40;;;;;;5054289;28;20020;-86
2023/04/12 11:06:48;;;;;;;2.03;1.40;;;14.20;72.50;;;;;;5021497;28;20036;-88
2023/04/12 11:09:32;;;;;;;3.20;1.70;;;14.30;72.50;;;;;;5039892;28;20044;-86
2023/04/12 11:12:13;;;;;;;2.03;1.38;;;14.30;72.40;;;;;;5036567;28;20029;-88
2023/04/12 11:14:49;;;;;;;2.20;1.50;;;14.40;72.50;;;;;;5036744;28;20488;-86
2023/04/12 11:17:17;;;;;;;2.97;1.48;;;14.40;72.50;;;;;;5020697;28;20029;-86
2023/04/12 11:19:56;;;;;;;2.45;1.50;;;14.40;72.40;;;;;;5020022;28;20032;-85
2023/04/12 11:22:25;;;;;;;3.55;1.52;;;14.50;72.50;;;;;;5020843;28;20449;-86
2023/04/12 11:24:53;;;;;;;2.22;1.25;;;14.60;72.50;;;;;;5020167;28;20053;-85
2023/04/12 11:27:20;;;;;;;2.30;1.50;;;14.60;72.50;;;;;;5019788;28;20017;-86
2023/04/12 11:29:55;;;;;;;4.00;2.08;;;14.60;73.10;;;;;;5003436;28;20029;-83
2023/04/12 11:32:26;;;;;;;1.75;1.30;;;14.60;72.40;;;;;;5003436;28;20087;-90
2023/04/12 11:34:54;;;;;;;2.90;1.65;;;14.70;72.40;;;;;;5019821;28;20033;-86
2023/04/12 11:37:21;;;;;;;2.40;1.80;;;14.70;72.40;;;;;;5038577;28;20029;-85
2023/04/12 11:39:50;;;;;;;2.60;1.50;;;14.80;72.40;;;;;;5039954;28;20025;-85
2023/04/12 11:42:18;;;;;;;2.95;1.67;;;14.80;72.40;;;;;;5058879;28;20438;-85
2023/04/12 11:44:46;;;;;;;4.20;1.70;;;14.80;72.40;;;;;;5023762;28;20025;-86
2023/04/12 11:47:22;;;;;;;2.38;1.80;;;14.90;72.40;;;;;;5024409;28;20090;-86
2023/04/12 11:49:50;;;;;;;3.17;1.63;;;14.80;72.30;;;;;;5057930;28;20037;-85
2023/04/12 11:52:17;;;;;;;3.50;1.52;;;14.90;72.30;;;;;;5023491;28;20025;-85
2023/04/12 11:54:48;;;;;;;3.17;1.52;;;14.90;72.30;;;;;;5040227;28;20124;-85
2023/04/12 11:57:15;;;;;;;3.55;1.67;;;15.00;72.30;;;;;;5040312;28;20044;-86
2023/04/12 11:59:46;;;;;;;3.50;1.90;;;15.00;72.30;;;;;;5007415;28;20044;-87
2023/04/12 12:02:13;;;;;;;2.38;1.63;;;15.00;72.20;;;;;;5023575;28;20044;-86
2023/04/12 12:04:45;;;;;;;2.58;1.52;;;15.00;72.20;;;;;;5040129;28;20031;-85
2023/04/12 12:07:13;;;;;;;3.05;1.58;;;15.10;72.30;;;;;;5023479;28;20035;-86
2023/04/12 12:09:42;;;;;;;2.50;1.88;;;15.10;72.20;;;;;;5039785;28;20043;-85
2023/04/12 12:12:11;;;;;;;3.28;1.55;;;15.10;72.20;;;;;;5023821;28;20158;-87
2023/04/12 12:14:37;;;;;;;2.80;1.65;;;15.20;72.20;;;;;;5023875;28;20040;-85
2023/04/12 12:17:12;;;;;;;4.45;1.80;;;15.20;72.20;;;;;;5040163;28;20037;-92
2023/04/12 12:19:40;;;;;;;1.60;1.30;;;15.20;72.20;;;;;;5040248;28;20025;-89
2023/04/12 12:22:09;;;;;;;3.50;1.48;;;15.20;72.10;;;;;;5006879;28;20115;-90
2023/04/12 12:24:37;;;;;;;3.20;1.90;;;15.30;72.20;;;;;;5057792;28;20470;-90
2023/04/12 12:27:03;;;;;;;2.47;1.40;;;15.30;72.10;;;;;;5023355;28;20026;-88
2023/04/12 12:29:36;;;;;;;1.65;1.40;;;15.30;72.10;;;;;;5023534;28;20033;-87
2023/04/12 12:32:10;;;;;;;3.72;1.70;;;15.30;72.00;;;;;;5039695;28;20035;-86
2023/04/12 12:34:35;;;;;;;3.05;1.40;;;15.30;72.00;;;;;;5024750;28;20036;-92
2023/04/12 12:37:01;;;;;;;5.20;1.40;;;15.40;72.00;;;;;;5007821;28;20049;-91
2023/04/12 12:39:27;;;;;;;3.95;1.45;;;15.30;71.90;;;;;;5007364;28;20086;-88
2023/04/12 12:41:55;;;;;;;2.10;1.42;;;15.40;72.00;;;;;;5023450;28;20025;-94
2023/04/12 12:44:22;;;;;;;3.17;1.63;;;15.40;71.90;;;;;;5007135;28;20037;-91
2023/04/12 12:46:49;;;;;;;2.55;1.33;;;15.40;71.90;;;;;;5007679;28;20457;-94
2023/04/12 12:49:15;;;;;;;2.10;1.58;;;15.50;71.90;;;;;;5023053;28;20039;-89
2023/04/12 12:51:41;;;;;;;1.70;1.48;;;15.50;71.80;;;;;;5007438;28;20021;-93
2023/04/12 12:54:08;;;;;;;1.70;1.40;;;15.50;71.80;;;;;;5039937;28;20041;-89
2023/04/12 12:56:34;;;;;;;3.30;1.60;;;15.50;71.80;;;;;;5022612;28;20112;-90
2023/04/12 12:59:00;;;;;;;2.67;1.48;;;15.60;71.80;;;;;;5022806;28;20064;-90